Time;durP1;ratioP1;P1;durP2;ratioP2;P2;SDS_P1;SDS_P2;PMS_P1;PMS_P2;Temp;Humidity;BMP_temperature;BMP_pressure;BME280_temperature;BME280_humidity;BME280_pressure;Samples;Min_cycle;Max_cycle;Signal;HPM_P1;HPM_P2
2022/08/23 00:00:53;;;;;;;6.77;5.10;;;17.00;99.90;;;;;;4449848;28;653478;-69
2022/08/23 00:03:41;;;;;;;8.50;5.40;;;17.00;99.90;;;;;;4429773;28;654850;-69
2022/08/23 00:06:28;;;;;;;11.70;5.90;;;17.00;99.90;;;;;;4454601;28;655339;-70
2022/08/23 00:09:17;;;;;;;6.60;5.43;;;17.00;99.90;;;;;;4430279;28;656024;-70
2022/08/23 00:12:08;;;;;;;7.87;5.50;;;17.00;99.90;;;;;;4455388;28;654542;-69
2022/08/23 00:14:55;;;;;;;10.57;5.60;;;17.00;99.90;;;;;;4409689;28;654587;-69
2022/08/23 00:17:42;;;;;;;9.27;5.47;;;17.00;99.90;;;;;;4450352;28;656446;-69
2022/08/23 00:20:30;;;;;;;13.27;4.80;;;17.00;99.90;;;;;;4451201;28;654747;-69
2022/08/23 00:23:17;;;;;;;8.18;5.25;;;17.00;99.90;;;;;;4454589;28;655688;-69
2022/08/23 00:26:06;;;;;;;11.30;4.93;;;17.00;99.90;;;;;;4451389;28;654265;-69
2022/08/23 00:28:53;;;;;;;9.97;4.90;;;17.10;99.90;;;;;;4427665;28;656252;-69
2022/08/23 00:31:40;;;;;;;6.90;4.37;;;17.00;99.90;;;;;;4431894;28;654667;-69
2022/08/23 00:34:27;;;;;;;9.33;5.20;;;17.10;99.90;;;;;;4450954;28;655710;-69
2022/08/23 00:37:16;;;;;;;6.50;4.73;;;17.10;99.90;;;;;;4451063;28;654429;-69
2022/08/23 00:40:04;;;;;;;6.50;4.73;;;17.10;99.90;;;;;;4453468;28;655543;-69
2022/08/23 00:49:09;;;;;;;6.77;4.63;;;17.10;99.90;;;;;;4433010;28;654270;-69
2022/08/23 00:51:57;;;;;;;10.90;4.43;;;17.10;99.90;;;;;;4432289;28;654533;-69
2022/08/23 00:54:44;;;;;;;8.03;4.93;;;17.10;99.90;;;;;;4449750;28;655632;-69
2022/08/23 00:57:31;;;;;;;7.53;4.93;;;17.10;99.90;;;;;;4432476;28;654936;-69
2022/08/23 01:00:20;;;;;;;10.37;4.90;;;17.10;99.90;;;;;;4437690;28;653489;-70
2022/08/23 01:03:08;;;;;;;6.23;4.97;;;17.00;99.90;;;;;;4413018;28;656008;-69
2022/08/23 01:05:58;;;;;;;6.93;4.57;;;17.00;99.90;;;;;;4413817;28;654164;-69
2022/08/23 01:08:48;;;;;;;6.77;4.90;;;16.90;99.90;;;;;;4409151;28;654487;-69
2022/08/23 01:11:37;;;;;;;8.93;4.60;;;16.90;99.90;;;;;;4418475;28;654983;-69
2022/08/23 01:14:26;;;;;;;8.37;4.37;;;16.90;99.90;;;;;;4436793;28;654178;-70
2022/08/23 01:17:18;;;;;;;8.40;4.20;;;17.00;99.90;;;;;;4413499;28;654709;-70
2022/08/23 01:20:07;;;;;;;7.83;4.30;;;17.00;99.90;;;;;;4415183;28;654685;-69
2022/08/23 01:22:57;;;;;;;9.50;4.83;;;16.90;99.90;;;;;;4437546;28;654544;-70
2022/08/23 01:25:45;;;;;;;7.07;4.37;;;16.80;99.90;;;;;;4411163;28;654661;-69
2022/08/23 01:28:32;;;;;;;5.63;4.53;;;16.80;99.90;;;;;;4415396;28;655548;-70
2022/08/23 01:31:20;;;;;;;6.83;4.80;;;16.80;99.90;;;;;;4432839;28;654771;-69
2022/08/23 01:34:08;;;;;;;7.10;4.63;;;16.80;99.90;;;;;;4438068;28;655504;-69
2022/08/23 01:36:55;;;;;;;10.63;4.37;;;16.80;99.90;;;;;;4414709;28;654303;-69
2022/08/23 01:39:43;;;;;;;7.07;4.07;;;16.80;99.90;;;;;;4436775;28;654932;-69
2022/08/23 01:42:31;;;;;;;7.97;4.30;;;16.70;99.90;;;;;;4424680;28;654574;-69
2022/08/23 01:45:19;;;;;;;8.43;4.90;;;16.60;99.90;;;;;;4433608;28;654312;-70
2022/08/23 01:48:06;;;;;;;11.00;5.53;;;16.60;99.90;;;;;;4414460;28;655130;-69
2022/08/23 01:50:53;;;;;;;7.17;5.33;;;16.60;99.90;;;;;;4434527;28;656134;-70
2022/08/23 01:53:40;;;;;;;13.33;5.20;;;16.60;99.90;;;;;;4416304;28;654322;-69
2022/08/23 01:56:28;;;;;;;36.50;5.37;;;16.60;99.90;;;;;;4435794;28;656020;-69
2022/08/23 01:59:16;;;;;;;26.17;5.20;;;16.50;99.90;;;;;;4435924;28;655766;-69
2022/08/23 02:02:03;;;;;;;12.57;4.50;;;16.60;99.90;;;;;;4448019;28;656482;-70
2022/08/23 02:04:51;;;;;;;21.07;5.00;;;16.60;99.90;;;;;;4429149;28;655759;-69
2022/08/23 02:07:38;;;;;;;9.73;5.30;;;16.60;99.90;;;;;;4451061;28;656114;-70
2022/08/23 02:10:25;;;;;;;9.30;5.03;;;16.60;99.90;;;;;;4429452;28;655232;-69
2022/08/23 02:13:12;;;;;;;9.43;5.20;;;16.70;99.90;;;;;;4452726;28;654882;-69
2022/08/23 02:16:01;;;;;;;12.03;5.27;;;16.70;99.90;;;;;;4449284;28;654823;-70
2022/08/23 02:18:49;;;;;;;9.30;5.00;;;16.80;99.90;;;;;;4424585;28;655763;-70
2022/08/23 02:21:36;;;;;;;8.90;5.13;;;16.70;99.90;;;;;;4429341;28;654399;-69
2022/08/23 02:24:24;;;;;;;6.60;5.07;;;16.70;99.90;;;;;;4448726;28;655095;-69
2022/08/23 02:27:13;;;;;;;8.93;6.27;;;16.70;99.90;;;;;;4429649;28;654711;-69
2022/08/23 02:30:00;;;;;;;9.87;5.87;;;16.70;99.90;;;;;;4429018;28;654396;-69
2022/08/23 02:32:49;;;;;;;9.57;5.70;;;16.80;99.90;;;;;;4452265;28;654461;-69
2022/08/23 02:35:37;;;;;;;10.80;5.57;;;16.80;99.90;;;;;;4432010;28;655213;-69
2022/08/23 02:38:24;;;;;;;42.07;6.47;;;16.80;99.90;;;;;;4449140;28;655751;-69
2022/08/23 02:41:11;;;;;;;18.77;5.97;;;16.70;99.90;;;;;;4427687;28;655451;-69
2022/08/23 02:43:59;;;;;;;12.80;6.23;;;16.80;99.90;;;;;;4452268;28;656157;-69
2022/08/23 02:46:46;;;;;;;15.13;6.53;;;16.80;99.90;;;;;;4427845;28;655640;-69
2022/08/23 02:49:34;;;;;;;38.33;7.57;;;16.80;99.90;;;;;;4448597;28;656149;-69
2022/08/23 02:52:22;;;;;;;16.00;6.40;;;16.80;99.90;;;;;;4425193;28;656563;-69
2022/08/23 02:55:09;;;;;;;135.37;9.23;;;16.80;99.90;;;;;;4448168;28;656086;-69
2022/08/23 02:57:57;;;;;;;57.33;7.93;;;16.70;99.90;;;;;;4422079;28;656624;-69
2022/08/23 03:00:46;;;;;;;61.50;10.70;;;16.60;99.90;;;;;;4441773;28;655603;-69
2022/08/23 03:03:33;;;;;;;38.70;8.53;;;16.70;99.90;;;;;;4447404;28;657901;-70
2022/08/23 03:06:25;;;;;;;12.70;7.80;;;16.70;99.90;;;;;;4429359;28;655430;-69
2022/08/23 03:09:15;;;;;;;24.43;10.23;;;16.80;99.90;;;;;;4426002;28;656595;-69
2022/08/23 03:12:05;;;;;;;18.33;8.60;;;16.80;99.90;;;;;;4424669;28;658267;-69
2022/08/23 03:14:52;;;;;;;148.30;12.87;;;16.90;99.90;;;;;;4429664;28;656831;-69
2022/08/23 03:17:42;;;;;;;121.07;12.10;;;16.90;99.90;;;;;;4449629;28;657692;-69
2022/08/23 03:20:31;;;;;;;30.23;11.07;;;17.00;99.90;;;;;;4424508;28;657578;-69
2022/08/23 03:23:23;;;;;;;39.43;12.57;;;16.90;99.90;;;;;;4423447;28;656897;-69
2022/08/23 03:26:13;;;;;;;35.85;12.30;;;16.90;99.90;;;;;;4426920;28;656342;-69
2022/08/23 03:29:03;;;;;;;20.90;11.00;;;16.90;99.90;;;;;;4427197;28;656536;-69
2022/08/23 03:31:53;;;;;;;20.43;10.07;;;16.90;99.90;;;;;;4440499;28;656110;-69
2022/08/23 03:34:42;;;;;;;20.73;10.47;;;16.90;99.90;;;;;;4441263;28;656871;-69
2022/08/23 03:37:33;;;;;;;22.20;11.17;;;16.90;99.90;;;;;;4444181;28;656971;-69
2022/08/23 03:40:25;;;;;;;49.58;11.82;;;17.00;99.90;;;;;;4432289;28;656621;-68
2022/08/23 03:43:14;;;;;;;64.27;13.33;;;17.10;99.90;;;;;;4426961;28;657663;-69
2022/08/23 03:46:01;;;;;;;414.70;19.47;;;17.10;99.90;;;;;;4428246;28;657017;-69
2022/08/23 03:48:50;;;;;;;394.97;18.93;;;17.10;99.90;;;;;;4451885;28;658009;-69
2022/08/23 03:51:37;;;;;;;337.77;19.10;;;17.10;99.90;;;;;;4425652;28;658395;-69
2022/08/23 03:54:25;;;;;;;214.57;18.53;;;17.10;99.90;;;;;;4444709;28;657538;-69
2022/08/23 03:57:14;;;;;;;108.03;18.90;;;17.10;99.90;;;;;;4449007;28;659184;-69
2022/08/23 04:00:01;;;;;;;201.13;19.63;;;17.00;99.90;;;;;;4412041;28;657572;-69
2022/08/23 04:02:48;;;;;;;50.23;16.97;;;17.00;99.90;;;;;;4434095;28;658960;-69
2022/08/23 04:05:35;;;;;;;39.00;16.03;;;17.00;99.90;;;;;;4412688;28;656768;-68
2022/08/23 04:08:24;;;;;;;29.73;14.70;;;17.20;99.90;;;;;;4431354;28;657806;-69
2022/08/23 04:11:12;;;;;;;37.33;14.57;;;17.20;99.90;;;;;;4409824;28;656924;-69
2022/08/23 04:14:00;;;;;;;29.70;14.00;;;17.20;99.90;;;;;;4433191;28;656663;-69
2022/08/23 04:16:47;;;;;;;30.23;12.40;;;17.10;99.90;;;;;;4409984;28;656978;-69
2022/08/23 04:19:35;;;;;;;25.33;11.30;;;17.10;99.90;;;;;;4431197;28;656384;-69
2022/08/23 04:22:22;;;;;;;23.03;11.67;;;17.10;99.90;;;;;;4408828;28;657428;-69
2022/08/23 04:25:09;;;;;;;23.80;11.50;;;17.20;99.90;;;;;;4431829;28;656535;-70
2022/08/23 04:27:57;;;;;;;23.70;11.20;;;17.20;99.90;;;;;;4408736;28;657206;-69
2022/08/23 04:30:45;;;;;;;21.67;10.80;;;17.30;99.90;;;;;;4431644;28;656678;-69
2022/08/23 04:33:33;;;;;;;21.90;11.63;;;17.40;99.90;;;;;;4413639;28;657806;-70
2022/08/23 04:36:20;;;;;;;29.07;12.50;;;17.50;99.90;;;;;;4417443;28;656411;-69
2022/08/23 04:39:08;;;;;;;24.03;13.13;;;17.50;99.90;;;;;;4434958;28;657455;-69
2022/08/23 04:45:01;;;;;;;24.80;11.67;;;17.60;99.90;;;;;;4431359;28;656893;-69
2022/08/23 04:47:49;;;;;;;27.67;11.77;;;17.60;99.90;;;;;;4431065;28;657929;-69
2022/08/23 04:50:36;;;;;;;30.30;12.27;;;17.70;99.90;;;;;;4411850;28;656400;-69
2022/08/23 04:53:24;;;;;;;29.77;12.60;;;17.70;99.90;;;;;;4424912;28;657663;-69
2022/08/23 04:56:11;;;;;;;30.40;13.13;;;17.70;99.90;;;;;;4412350;28;656733;-69
2022/08/23 04:58:58;;;;;;;33.07;13.27;;;17.70;99.90;;;;;;4444977;28;657748;-69
2022/08/23 05:01:45;;;;;;;32.33;12.90;;;17.70;99.90;;;;;;4438226;28;656656;-69
2022/08/23 05:04:34;;;;;;;30.80;13.67;;;17.70;99.90;;;;;;4452787;28;657511;-70
2022/08/23 05:07:21;;;;;;;38.07;13.07;;;17.60;99.90;;;;;;4429052;28;656717;-69
2022/08/23 05:10:09;;;;;;;40.33;13.03;;;17.60;99.90;;;;;;4451479;28;657122;-69
2022/08/23 05:12:56;;;;;;;36.70;12.70;;;17.50;99.90;;;;;;4429604;28;656723;-68
2022/08/23 05:15:44;;;;;;;47.17;14.00;;;17.70;99.90;;;;;;4448784;28;657374;-69
2022/08/23 05:18:31;;;;;;;45.23;13.07;;;17.60;99.90;;;;;;4429424;28;656776;-69
2022/08/23 05:21:21;;;;;;;39.40;13.10;;;17.60;99.90;;;;;;4451013;28;657903;-69
2022/08/23 05:24:09;;;;;;;39.63;13.47;;;17.70;99.90;;;;;;4425164;28;656778;-70
2022/08/23 05:26:56;;;;;;;37.03;13.90;;;17.80;99.90;;;;;;4429623;28;656815;-69
2022/08/23 05:29:43;;;;;;;30.50;12.80;;;17.90;99.90;;;;;;4452153;28;657681;-69
2022/08/23 05:32:30;;;;;;;41.20;14.67;;;17.90;99.90;;;;;;4437868;28;656681;-69
2022/08/23 05:35:17;;;;;;;33.13;13.73;;;17.90;99.90;;;;;;4449061;28;657349;-70
2022/08/23 05:38:06;;;;;;;34.57;13.93;;;17.90;99.90;;;;;;4447784;28;656598;-68
2022/08/23 05:40:56;;;;;;;35.07;14.73;;;17.90;99.90;;;;;;4448153;28;657205;-70
2022/08/23 05:43:43;;;;;;;35.87;15.47;;;17.90;99.90;;;;;;4425091;28;657007;-69
2022/08/23 05:46:30;;;;;;;34.23;14.23;;;18.00;99.90;;;;;;4429343;28;656794;-69
2022/08/23 05:49:17;;;;;;;45.33;15.67;;;18.00;99.90;;;;;;4452031;28;657248;-69
2022/08/23 05:52:04;;;;;;;40.97;15.93;;;18.20;99.90;;;;;;4447690;28;656370;-69
2022/08/23 05:54:53;;;;;;;43.83;15.77;;;18.30;99.90;;;;;;4428442;28;657173;-69
2022/08/23 05:57:40;;;;;;;35.50;15.00;;;18.40;99.90;;;;;;4429684;28;657209;-69
2022/08/23 06:00:28;;;;;;;30.03;13.80;;;18.40;99.90;;;;;;4451508;28;657184;-70
2022/08/23 06:03:15;;;;;;;35.50;14.07;;;18.50;99.90;;;;;;4438974;28;657119;-69
2022/08/23 06:06:03;;;;;;;30.60;13.13;;;18.40;99.90;;;;;;4451461;28;657353;-69
2022/08/23 06:08:50;;;;;;;33.90;13.27;;;18.60;99.90;;;;;;4441399;28;656842;-69
2022/08/23 06:11:39;;;;;;;46.93;17.03;;;18.80;99.90;;;;;;4451330;28;656130;-69
2022/08/23 06:14:26;;;;;;;41.87;15.37;;;18.40;99.90;;;;;;4428187;28;656450;-69
2022/08/23 06:17:13;;;;;;;39.47;14.80;;;18.40;99.90;;;;;;4450567;28;657540;-69
2022/08/23 06:20:01;;;;;;;38.40;14.63;;;18.40;99.90;;;;;;4428152;28;656469;-69
2022/08/23 06:22:48;;;;;;;37.00;14.67;;;18.60;99.90;;;;;;4447103;28;658280;-70
2022/08/23 06:25:36;;;;;;;33.93;14.43;;;18.60;99.90;;;;;;4427915;28;657146;-69
2022/08/23 06:28:25;;;;;;;32.33;14.63;;;18.60;99.90;;;;;;4447062;28;656752;-70
2022/08/23 06:31:12;;;;;;;33.63;14.27;;;18.80;99.90;;;;;;4429638;28;657482;-69
2022/08/23 06:33:59;;;;;;;28.87;13.00;;;18.60;99.90;;;;;;4447465;28;656963;-69
2022/08/23 06:36:47;;;;;;;33.27;14.13;;;18.80;99.90;;;;;;4425464;28;656887;-69
2022/08/23 06:39:34;;;;;;;36.77;14.90;;;19.00;99.90;;;;;;4446927;28;656615;-69
2022/08/23 06:42:23;;;;;;;34.37;15.10;;;18.90;99.90;;;;;;4428309;28;656522;-69
2022/08/23 06:45:13;;;;;;;43.30;17.37;;;18.90;99.90;;;;;;4439604;28;656459;-68
2022/08/23 06:48:00;;;;;;;43.23;17.20;;;19.00;99.90;;;;;;4435865;28;656702;-68
2022/08/23 06:50:47;;;;;;;41.33;16.70;;;19.10;99.90;;;;;;4446637;28;657676;-69
2022/08/23 06:53:34;;;;;;;41.60;16.17;;;19.20;99.90;;;;;;4446365;28;657535;-68
2022/08/23 06:56:21;;;;;;;52.07;22.73;;;19.10;99.90;;;;;;4427415;28;656355;-68
2022/08/23 06:59:09;;;;;;;61.20;25.40;;;18.90;99.90;;;;;;4446602;28;657088;-68
2022/08/23 07:01:58;;;;;;;67.13;28.03;;;18.80;99.90;;;;;;4428268;28;657095;-68
2022/08/23 07:04:52;;;;;;;61.40;25.70;;;18.80;99.90;;;;;;4430488;28;656422;-69
2022/08/23 07:07:39;;;;;;;75.27;28.20;;;18.80;99.90;;;;;;4423421;28;656773;-69
2022/08/23 07:10:26;;;;;;;75.40;28.07;;;18.70;99.90;;;;;;4427460;28;656495;-69
2022/08/23 07:13:13;;;;;;;80.63;29.53;;;18.70;99.90;;;;;;4446336;28;659228;-68
2022/08/23 07:16:01;;;;;;;76.83;28.77;;;18.90;99.90;;;;;;4427413;28;656305;-69
2022/08/23 07:18:51;;;;;;;70.27;25.77;;;19.10;99.90;;;;;;4445876;28;657607;-68
2022/08/23 07:21:39;;;;;;;71.70;24.67;;;19.30;99.90;;;;;;4424417;28;657354;-69
2022/08/23 07:24:27;;;;;;;68.93;24.07;;;19.30;99.90;;;;;;4429404;28;656460;-69
2022/08/23 07:27:14;;;;;;;50.80;21.30;;;19.20;99.90;;;;;;4447618;28;656306;-69
2022/08/23 07:30:01;;;;;;;49.67;20.87;;;19.00;99.90;;;;;;4428212;28;657043;-69
2022/08/23 07:32:48;;;;;;;46.60;19.60;;;19.10;99.90;;;;;;4446628;28;656962;-69
2022/08/23 07:35:37;;;;;;;43.10;19.77;;;19.40;99.90;;;;;;4427150;28;656347;-69
2022/08/23 07:38:25;;;;;;;39.60;18.13;;;19.70;99.90;;;;;;4444751;28;657429;-69
2022/08/23 07:41:13;;;;;;;36.35;17.73;;;19.90;99.90;;;;;;4450542;28;656305;-69
2022/08/23 07:44:01;;;;;;;24.00;13.77;;;20.10;99.90;;;;;;4428009;28;656727;-68
2022/08/23 07:46:48;;;;;;;30.47;15.67;;;20.20;99.90;;;;;;4450370;28;657181;-69
2022/08/23 07:49:35;;;;;;;34.00;15.70;;;20.20;99.90;;;;;;4426949;28;656592;-69
2022/08/23 07:52:24;;;;;;;29.33;14.97;;;20.20;99.90;;;;;;4446299;28;658295;-69
2022/08/23 07:55:11;;;;;;;29.63;15.30;;;20.10;99.90;;;;;;4428155;28;656817;-69
2022/08/23 07:57:58;;;;;;;30.23;15.50;;;20.30;99.90;;;;;;4443670;28;657384;-69
2022/08/23 08:00:45;;;;;;;35.07;15.77;;;20.40;99.90;;;;;;4410431;28;656577;-68
2022/08/23 08:03:33;;;;;;;32.13;18.00;;;20.40;99.90;;;;;;4428075;28;657501;-69
2022/08/23 08:06:22;;;;;;;36.07;17.27;;;20.50;99.90;;;;;;4423466;28;657304;-69
2022/08/23 08:09:11;;;;;;;35.67;18.53;;;19.80;99.90;;;;;;4429316;28;657100;-69
2022/08/23 08:11:58;;;;;;;34.50;17.70;;;20.00;99.90;;;;;;4406417;28;658793;-69
2022/08/23 08:14:46;;;;;;;34.80;17.00;;;20.30;99.90;;;;;;4410419;28;656296;-68
2022/08/23 08:17:34;;;;;;;34.47;17.90;;;20.50;99.90;;;;;;4429339;28;656956;-69
2022/08/23 08:20:21;;;;;;;40.53;17.83;;;20.60;99.90;;;;;;4409471;28;656479;-68
2022/08/23 08:23:08;;;;;;;36.10;18.55;;;20.60;99.90;;;;;;4429211;28;657429;-69
2022/08/23 08:26:04;;;;;;;41.27;19.27;;;20.70;99.90;;;;;;4411739;28;656969;-69
2022/08/23 08:28:51;;;;;;;41.63;20.30;;;20.70;99.90;;;;;;4387127;28;657117;-69
2022/08/23 08:31:39;;;;;;;38.07;19.70;;;20.70;99.90;;;;;;4432431;28;656529;-68
2022/08/23 08:34:26;;;;;;;41.93;19.70;;;20.80;99.90;;;;;;4412334;28;657032;-69
2022/08/23 08:37:13;;;;;;;35.87;18.80;;;20.70;99.90;;;;;;4432622;28;657754;-69
2022/08/23 08:40:00;;;;;;;36.57;18.97;;;20.80;99.90;;;;;;4414005;28;657284;-69
2022/08/23 08:43:04;;;;;;;35.57;18.20;;;20.90;99.90;;;;;;4431080;28;657910;-68
2022/08/23 08:45:58;;;;;;;36.93;18.70;;;21.00;99.90;;;;;;4412635;28;656759;-68
2022/08/23 08:48:47;;;;;;;36.10;17.80;;;20.90;99.90;;;;;;4399058;28;656359;-68
2022/08/23 08:51:38;;;;;;;37.23;18.07;;;21.10;99.90;;;;;;4432081;28;657542;-68
2022/08/23 08:54:26;;;;;;;37.70;19.07;;;21.10;99.90;;;;;;4396293;28;657525;-68
2022/08/23 08:57:15;;;;;;;35.50;18.30;;;21.20;99.90;;;;;;4432044;28;657528;-69
2022/08/23 09:00:06;;;;;;;33.07;17.77;;;21.20;99.90;;;;;;4408772;28;657586;-68
2022/08/23 09:02:54;;;;;;;38.93;18.53;;;21.50;99.90;;;;;;4408539;28;657301;-68
2022/08/23 09:05:47;;;;;;;36.27;18.37;;;21.40;99.90;;;;;;4412382;28;656551;-68
2022/08/23 09:08:41;;;;;;;34.23;18.17;;;21.20;99.90;;;;;;4408680;28;656979;-68
2022/08/23 09:11:35;;;;;;;33.90;17.83;;;21.30;99.90;;;;;;4405790;28;656953;-69
2022/08/23 09:14:52;;;;;;;32.53;17.93;;;21.70;99.90;;;;;;4385058;28;656496;-69
2022/08/23 09:17:44;;;;;;;30.23;16.63;;;21.70;99.90;;;;;;4407804;28;656464;-69
2022/08/23 09:20:31;;;;;;;30.20;16.70;;;21.90;99.90;;;;;;4385092;28;657142;-68
2022/08/23 09:23:20;;;;;;;31.43;16.83;;;22.50;99.90;;;;;;4432928;28;657992;-68
2022/08/23 09:26:17;;;;;;;30.40;15.53;;;22.80;99.90;;;;;;4407751;28;657336;-68
2022/08/23 09:29:07;;;;;;;26.87;15.47;;;23.30;99.90;;;;;;4408407;28;656348;-68
2022/08/23 09:31:57;;;;;;;30.37;16.70;;;23.60;99.90;;;;;;4408828;28;656714;-68
2022/08/23 09:34:45;;;;;;;25.90;14.83;;;23.50;99.90;;;;;;4412323;28;656343;-68
2022/08/23 09:37:32;;;;;;;27.08;14.65;;;23.80;99.90;;;;;;4411116;28;657178;-68
2022/08/23 09:40:22;;;;;;;27.17;15.77;;;24.60;99.90;;;;;;4434100;28;656364;-68
2022/08/23 09:43:14;;;;;;;22.08;13.85;;;23.90;99.90;;;;;;4407708;28;656955;-68
2022/08/23 09:46:01;;;;;;;24.27;14.38;;;24.00;99.90;;;;;;4384385;28;656978;-68
2022/08/23 09:48:49;;;;;;;23.23;13.93;;;24.30;99.90;;;;;;4429872;28;658129;-68
2022/08/23 09:51:40;;;;;;;23.38;14.23;;;24.40;99.90;;;;;;4411087;28;656449;-68
2022/08/23 09:54:29;;;;;;;21.92;12.95;;;24.00;99.90;;;;;;4411612;28;657897;-68
2022/08/23 09:57:17;;;;;;;23.67;15.10;;;24.20;99.90;;;;;;4410966;28;656642;-68
2022/08/23 10:00:21;;;;;;;23.30;13.02;;;24.10;99.90;;;;;;4429948;28;656518;-68
2022/08/23 10:03:22;;;;;;;29.20;14.00;;;24.40;99.90;;;;;;4407606;28;656873;-68
2022/08/23 10:06:11;;;;;;;23.55;13.27;;;24.20;99.90;;;;;;4425934;28;656922;-68
2022/08/23 10:09:04;;;;;;;19.13;12.70;;;24.00;99.90;;;;;;4433758;28;657831;-68
2022/08/23 10:11:51;;;;;;;20.93;14.67;;;23.80;99.90;;;;;;4410319;28;656456;-68
2022/08/23 10:14:38;;;;;;;23.07;14.03;;;24.10;99.90;;;;;;4433028;28;657355;-68
2022/08/23 10:17:32;;;;;;;21.42;13.88;;;24.60;99.90;;;;;;4412732;28;656648;-68
2022/08/23 10:20:29;;;;;;;19.50;13.65;;;24.40;99.90;;;;;;4401796;28;657373;-68
2022/08/23 10:23:20;;;;;;;19.63;14.05;;;24.10;99.90;;;;;;4409782;28;656400;-68
2022/08/23 10:26:12;;;;;;;19.23;13.57;;;24.10;99.90;;;;;;4410318;28;657722;-68
2022/08/23 10:32:20;;;;;;;21.47;14.20;;;23.00;99.90;;;;;;4405736;28;656717;-68
2022/08/23 10:35:28;;;;;;;21.88;14.45;;;22.70;99.90;;;;;;4383881;28;657000;-68
2022/08/23 10:38:37;;;;;;;21.05;14.95;;;22.60;99.90;;;;;;4399289;28;656933;-68
2022/08/23 10:41:34;;;;;;;23.47;14.60;;;22.70;99.90;;;;;;4406863;28;656656;-68
2022/08/23 10:44:25;;;;;;;20.27;15.03;;;22.40;99.90;;;;;;4384389;28;657366;-68
2022/08/23 10:47:17;;;;;;;26.13;16.03;;;22.30;99.90;;;;;;4407954;28;656550;-68
2022/08/23 10:50:05;;;;;;;24.53;15.17;;;22.20;99.90;;;;;;4410074;28;656501;-68
2022/08/23 10:52:54;;;;;;;24.27;15.13;;;22.30;99.90;;;;;;4406215;28;657097;-68
2022/08/23 10:55:53;;;;;;;22.23;15.47;;;22.50;99.90;;;;;;4410397;28;656585;-68
2022/08/23 10:58:45;;;;;;;24.37;16.23;;;22.70;99.90;;;;;;4394739;28;657073;-68
2022/08/23 11:01:39;;;;;;;26.17;17.43;;;22.40;99.90;;;;;;4417754;28;657640;-68
2022/08/23 11:04:29;;;;;;;26.67;17.87;;;21.80;99.90;;;;;;4427993;28;656669;-68
2022/08/23 11:07:18;;;;;;;24.30;14.70;;;21.90;99.90;;;;;;4423958;28;656827;-69
2022/08/23 11:10:11;;;;;;;27.50;17.67;;;22.70;99.90;;;;;;4430753;28;656977;-68
2022/08/23 11:12:59;;;;;;;24.97;17.20;;;22.50;99.90;;;;;;4423660;28;657228;-68
2022/08/23 11:15:56;;;;;;;33.67;18.03;;;21.90;99.90;;;;;;4425254;28;657323;-68
2022/08/23 11:18:44;;;;;;;26.87;16.60;;;22.00;99.90;;;;;;4422608;28;657017;-68
2022/08/23 11:21:47;;;;;;;24.37;16.20;;;22.80;99.90;;;;;;4427858;28;656722;-68
2022/08/23 11:24:52;;;;;;;28.83;17.30;;;22.80;99.90;;;;;;4417873;28;657058;-68
2022/08/23 11:27:40;;;;;;;26.23;17.03;;;22.80;99.90;;;;;;4424146;28;657046;-68
2022/08/23 11:30:38;;;;;;;25.53;16.83;;;22.60;99.90;;;;;;4424548;28;657813;-68
2022/08/23 11:33:28;;;;;;;22.00;15.20;;;22.70;99.90;;;;;;4406091;28;656851;-68
2022/08/23 11:36:17;;;;;;;25.77;16.47;;;23.60;99.90;;;;;;4428569;28;656464;-68
2022/08/23 11:39:07;;;;;;;23.40;15.70;;;24.20;99.90;;;;;;4445650;28;657223;-68
2022/08/23 11:42:03;;;;;;;19.80;12.10;;;24.30;99.90;;;;;;4427111;28;656530;-68
2022/08/23 11:44:50;;;;;;;20.77;14.53;;;24.10;99.90;;;;;;4404342;28;656536;-68
2022/08/23 11:47:39;;;;;;;25.93;16.47;;;23.60;99.90;;;;;;4450593;28;657529;-68
2022/08/23 11:50:30;;;;;;;21.97;15.60;;;23.40;99.90;;;;;;4423413;28;656311;-68
2022/08/23 11:53:42;;;;;;;27.97;16.60;;;23.70;99.90;;;;;;4423722;28;657520;-68
2022/08/23 11:56:48;;;;;;;23.87;15.23;;;23.20;99.90;;;;;;4423431;28;656791;-68
2022/08/23 11:59:55;;;;;;;21.45;14.23;;;23.80;99.90;;;;;;4384016;28;656759;-68
2022/08/23 12:02:51;;;;;;;24.85;14.23;;;24.60;99.90;;;;;;4386390;28;656667;-68
2022/08/23 12:06:09;;;;;;;21.73;14.43;;;24.80;99.90;;;;;;4403645;28;656944;-68
2022/08/23 12:09:00;;;;;;;22.67;14.57;;;24.80;99.90;;;;;;4412978;28;656370;-68
2022/08/23 12:12:26;;;;;;;22.95;13.95;;;25.00;99.90;;;;;;4409431;28;657763;-68
2022/08/23 12:15:13;;;;;;;23.92;14.27;;;25.00;99.90;;;;;;4409359;28;656496;-68
2022/08/23 12:18:11;;;;;;;23.60;14.40;;;25.00;99.90;;;;;;4412736;28;656497;-68
2022/08/23 12:20:59;;;;;;;20.08;13.75;;;25.30;99.90;;;;;;4408694;28;656690;-68
2022/08/23 12:23:49;;;;;;;18.08;13.68;;;25.80;99.90;;;;;;4413063;28;656749;-68
2022/08/23 12:26:44;;;;;;;17.23;12.98;;;25.60;99.90;;;;;;4407059;28;656591;-68
2022/08/23 12:29:37;;;;;;;20.40;13.30;;;25.40;99.90;;;;;;4410892;28;656504;-68
2022/08/23 12:32:29;;;;;;;23.33;14.20;;;25.20;99.90;;;;;;4408940;28;657229;-68
2022/08/23 12:35:27;;;;;;;18.65;13.57;;;24.90;99.90;;;;;;4408793;28;656563;-68
2022/08/23 12:38:17;;;;;;;20.65;13.65;;;25.00;99.90;;;;;;4408315;28;656553;-68
2022/08/23 12:41:16;;;;;;;23.75;14.50;;;24.90;99.90;;;;;;4409337;28;656795;-68
2022/08/23 12:44:05;;;;;;;19.20;13.15;;;24.20;99.90;;;;;;4409258;28;656943;-68
2022/08/23 12:46:52;;;;;;;19.25;13.65;;;23.90;99.90;;;;;;4406328;28;657564;-68
2022/08/23 12:49:40;;;;;;;19.83;13.93;;;24.10;99.90;;;;;;4426502;28;656363;-68
2022/08/23 12:52:29;;;;;;;20.67;14.40;;;24.10;99.90;;;;;;4424051;28;657400;-68
2022/08/23 12:55:18;;;;;;;19.05;13.45;;;23.80;99.90;;;;;;4412067;28;656881;-68
2022/08/23 12:58:07;;;;;;;21.00;13.20;;;23.70;99.90;;;;;;4418294;28;656549;-68
2022/08/23 13:00:55;;;;;;;18.30;13.70;;;23.80;99.90;;;;;;4444180;28;656342;-68
2022/08/23 13:03:44;;;;;;;18.35;13.27;;;24.10;99.90;;;;;;4427022;28;658003;-68
2022/08/23 13:06:33;;;;;;;21.10;13.67;;;24.10;99.90;;;;;;4428075;28;656326;-68
2022/08/23 13:09:23;;;;;;;19.48;11.98;;;24.80;99.90;;;;;;4429836;28;656881;-68
2022/08/23 13:12:10;;;;;;;20.98;12.38;;;25.60;99.90;;;;;;4439529;28;656783;-68
2022/08/23 13:15:01;;;;;;;19.23;12.50;;;26.00;99.90;;;;;;4452890;28;657671;-68
2022/08/23 13:17:48;;;;;;;20.35;13.15;;;26.40;99.90;;;;;;4425638;28;656968;-68
2022/08/23 13:20:35;;;;;;;18.80;12.95;;;26.80;99.90;;;;;;4429016;28;657085;-68
2022/08/23 13:23:27;;;;;;;18.98;12.57;;;26.90;99.90;;;;;;4448515;28;657752;-68
2022/08/23 13:26:34;;;;;;;20.90;13.30;;;25.60;99.90;;;;;;4421009;28;656606;-68
2022/08/23 13:29:22;;;;;;;18.75;13.13;;;25.20;99.90;;;;;;4428357;28;656550;-68
2022/08/23 13:32:24;;;;;;;24.27;13.85;;;24.30;99.90;;;;;;4451803;28;656384;-68
2022/08/23 13:35:31;;;;;;;16.95;12.25;;;24.90;99.90;;;;;;4425133;28;656774;-68
2022/08/23 13:38:22;;;;;;;20.60;14.65;;;24.70;99.90;;;;;;4425030;28;656751;-68
2022/08/23 13:41:11;;;;;;;20.73;14.40;;;25.00;99.90;;;;;;4428190;28;656083;-68
2022/08/23 13:43:58;;;;;;;19.58;15.35;;;24.60;99.90;;;;;;4426338;28;656375;-68
2022/08/23 13:46:46;;;;;;;20.30;13.98;;;24.70;99.90;;;;;;4430030;28;656666;-68
2022/08/23 13:49:36;;;;;;;20.35;14.52;;;25.10;99.90;;;;;;4448587;28;657471;-68
2022/08/23 13:52:23;;;;;;;19.10;14.00;;;25.40;99.90;;;;;;4424909;28;656914;-68
2022/08/23 13:55:10;;;;;;;22.73;14.43;;;25.30;99.90;;;;;;4438913;28;656180;-68
2022/08/23 13:57:57;;;;;;;21.08;14.40;;;24.90;99.90;;;;;;4445534;28;656866;-68
2022/08/23 14:00:45;;;;;;;20.83;13.30;;;25.30;99.90;;;;;;4429556;28;656749;-68
2022/08/23 14:03:32;;;;;;;18.55;13.30;;;26.10;99.90;;;;;;4435216;28;656630;-68
2022/08/23 14:06:21;;;;;;;16.98;12.20;;;25.30;99.90;;;;;;4431028;28;656608;-68
2022/08/23 14:09:08;;;;;;;16.67;12.25;;;25.90;99.90;;;;;;4408918;28;657052;-68
2022/08/23 14:11:57;;;;;;;16.35;13.02;;;26.30;99.90;;;;;;4413967;28;656743;-68
2022/08/23 14:14:45;;;;;;;18.35;12.90;;;26.10;99.90;;;;;;4430342;28;656345;-68
2022/08/23 14:17:33;;;;;;;16.63;11.45;;;26.40;99.90;;;;;;4434866;28;656696;-68
2022/08/23 14:20:21;;;;;;;16.73;12.18;;;27.00;99.90;;;;;;4414471;28;656921;-68
2022/08/23 14:23:09;;;;;;;17.77;12.10;;;26.70;99.90;;;;;;4433366;28;656656;-68
2022/08/23 14:25:58;;;;;;;16.65;12.32;;;27.20;99.90;;;;;;4411693;28;656590;-68